sensor_id;sensor_type;location;lat;lon;timestamp;temperature;humidity
60309;DHT22;50313;52.894;6.492;2022-12-18T00:01:20;-3.30;99.90
60309;DHT22;50313;52.894;6.492;2022-12-18T00:03:46;-3.30;99.90
60309;DHT22;50313;52.894;6.492;2022-12-18T00:06:12;-3.40;99.90
60309;DHT22;50313;52.894;6.492;2022-12-18T00:08:40;-3.40;99.90
60309;DHT22;50313;52.894;6.492;2022-12-18T00:11:12;-3.40;99.90
60309;DHT22;50313;52.894;6.492;2022-12-18T00:13:38;-3.40;99.90
60309;DHT22;50313;52.894;6.492;2022-12-18T00:16:06;-3.40;99.90
60309;DHT22;50313;52.894;6.492;2022-12-18T00:18:32;-3.50;99.90
60309;DHT22;50313;52.894;6.492;2022-12-18T00:20:59;-3.50;99.90
60309;DHT22;50313;52.894;6.492;2022-12-18T00:23:26;-3.50;99.90
60309;DHT22;50313;52.894;6.492;2022-12-18T00:25:52;-3.50;99.90
60309;DHT22;50313;52.894;6.492;2022-12-18T00:28:18;-3.60;99.90
60309;DHT22;50313;52.894;6.492;2022-12-18T00:30:44;-3.60;99.90
60309;DHT22;50313;52.894;6.492;2022-12-18T00:33:09;-3.60;99.90
60309;DHT22;50313;52.894;6.492;2022-12-18T00:35:35;-3.60;99.90
60309;DHT22;50313;52.894;6.492;2022-12-18T00:38:01;-3.60;99.90
60309;DHT22;50313;52.894;6.492;2022-12-18T00:40:26;-3.50;99.90
60309;DHT22;50313;52.894;6.492;2022-12-18T00:42:52;-3.50;99.90
60309;DHT22;50313;52.894;6.492;2022-12-18T00:45:22;-3.50;99.90
60309;DHT22;50313;52.894;6.492;2022-12-18T00:47:48;-3.60;99.90
60309;DHT22;50313;52.894;6.492;2022-12-18T00:50:13;-3.60;99.90
60309;DHT22;50313;52.894;6.492;2022-12-18T00:52:39;-3.70;99.90
60309;DHT22;50313;52.894;6.492;2022-12-18T00:55:05;-3.70;99.90
60309;DHT22;50313;52.894;6.492;2022-12-18T00:57:31;-3.70;99.90
60309;DHT22;50313;52.894;6.492;2022-12-18T00:59:57;-3.80;99.90
60309;DHT22;50313;52.894;6.492;2022-12-18T01:02:23;-3.80;99.90
60309;DHT22;50313;52.894;6.492;2022-12-18T01:04:48;-3.80;99.90
60309;DHT22;50313;52.894;6.492;2022-12-18T01:07:14;-3.80;99.90
60309;DHT22;50313;52.894;6.492;2022-12-18T01:09:40;-3.70;99.90
60309;DHT22;50313;52.894;6.492;2022-12-18T01:12:06;-3.80;99.90
60309;DHT22;50313;52.894;6.492;2022-12-18T01:14:31;-3.80;99.90
60309;DHT22;50313;52.894;6.492;2022-12-18T01:16:57;-3.80;99.90
60309;DHT22;50313;52.894;6.492;2022-12-18T01:19:23;-3.80;99.90
60309;DHT22;50313;52.894;6.492;2022-12-18T01:21:49;-3.80;99.90
60309;DHT22;50313;52.894;6.492;2022-12-18T01:24:15;-3.80;99.90
60309;DHT22;50313;52.894;6.492;2022-12-18T01:26:40;-3.80;99.90
60309;DHT22;50313;52.894;6.492;2022-12-18T01:29:06;-3.80;99.90
60309;DHT22;50313;52.894;6.492;2022-12-18T01:31:33;-3.90;99.90
60309;DHT22;50313;52.894;6.492;2022-12-18T01:34:04;-3.90;99.90
60309;DHT22;50313;52.894;6.492;2022-12-18T01:36:32;-3.90;99.90
60309;DHT22;50313;52.894;6.492;2022-12-18T01:39:00;-3.90;99.90
60309;DHT22;50313;52.894;6.492;2022-12-18T01:41:28;-3.90;99.90
60309;DHT22;50313;52.894;6.492;2022-12-18T01:49:54;-4.00;99.90
60309;DHT22;50313;52.894;6.492;2022-12-18T01:52:22;-4.00;99.90
60309;DHT22;50313;52.894;6.492;2022-12-18T01:54:50;-4.00;99.90
60309;DHT22;50313;52.894;6.492;2022-12-18T01:57:17;-4.10;99.90
60309;DHT22;50313;52.894;6.492;2022-12-18T01:59:45;-4.10;99.90
60309;DHT22;50313;52.894;6.492;2022-12-18T02:02:14;-4.10;99.90
60309;DHT22;50313;52.894;6.492;2022-12-18T02:04:41;-4.10;99.90
60309;DHT22;50313;52.894;6.492;2022-12-18T02:07:29;-4.00;99.90
60309;DHT22;50313;52.894;6.492;2022-12-18T02:12:25;-4.10;99.90
60309;DHT22;50313;52.894;6.492;2022-12-18T02:17:23;-4.30;99.90
60309;DHT22;50313;52.894;6.492;2022-12-18T02:28:44;-4.50;99.90
60309;DHT22;50313;52.894;6.492;2022-12-18T02:31:15;-4.60;99.90
60309;DHT22;50313;52.894;6.492;2022-12-18T02:33:44;-4.60;99.90
60309;DHT22;50313;52.894;6.492;2022-12-18T02:36:12;-4.70;99.90
60309;DHT22;50313;52.894;6.492;2022-12-18T02:38:39;-4.70;99.90
60309;DHT22;50313;52.894;6.492;2022-12-18T02:41:05;-4.70;99.90
60309;DHT22;50313;52.894;6.492;2022-12-18T02:43:31;-4.80;99.90
60309;DHT22;50313;52.894;6.492;2022-12-18T02:45:59;-4.80;99.90
60309;DHT22;50313;52.894;6.492;2022-12-18T02:48:31;-4.80;99.90
60309;DHT22;50313;52.894;6.492;2022-12-18T02:51:08;-4.80;99.90
60309;DHT22;50313;52.894;6.492;2022-12-18T02:53:43;-4.80;99.90
60309;DHT22;50313;52.894;6.492;2022-12-18T02:56:21;-4.90;99.90
60309;DHT22;50313;52.894;6.492;2022-12-18T03:04:04;-4.90;99.90
60309;DHT22;50313;52.894;6.492;2022-12-18T03:06:38;-4.90;99.90
60309;DHT22;50313;52.894;6.492;2022-12-18T03:09:17;-5.00;99.90
60309;DHT22;50313;52.894;6.492;2022-12-18T03:11:49;-5.00;99.90
60309;DHT22;50313;52.894;6.492;2022-12-18T03:14:38;-5.00;99.90
60309;DHT22;50313;52.894;6.492;2022-12-18T03:17:06;-5.00;99.90
60309;DHT22;50313;52.894;6.492;2022-12-18T03:19:33;-5.00;99.90
60309;DHT22;50313;52.894;6.492;2022-12-18T03:22:02;-5.00;99.90
60309;DHT22;50313;52.894;6.492;2022-12-18T03:24:29;-5.10;99.90
60309;DHT22;50313;52.894;6.492;2022-12-18T03:27:01;-5.10;99.90
60309;DHT22;50313;52.894;6.492;2022-12-18T03:29:36;-5.10;99.90
60309;DHT22;50313;52.894;6.492;2022-12-18T03:32:09;-5.10;99.90
60309;DHT22;50313;52.894;6.492;2022-12-18T03:34:38;-5.10;99.90
60309;DHT22;50313;52.894;6.492;2022-12-18T03:37:06;-5.10;99.90
60309;DHT22;50313;52.894;6.492;2022-12-18T03:39:32;-5.10;99.90
60309;DHT22;50313;52.894;6.492;2022-12-18T03:50:22;-5.20;99.90
60309;DHT22;50313;52.894;6.492;2022-12-18T03:52:58;-5.30;99.90
60309;DHT22;50313;52.894;6.492;2022-12-18T03:55:26;-5.30;99.90
60309;DHT22;50313;52.894;6.492;2022-12-18T03:57:54;-5.40;99.90
60309;DHT22;50313;52.894;6.492;2022-12-18T04:00:20;-5.40;99.90
60309;DHT22;50313;52.894;6.492;2022-12-18T04:02:51;-5.40;99.90
60309;DHT22;50313;52.894;6.492;2022-12-18T04:05:18;-5.40;99.90
60309;DHT22;50313;52.894;6.492;2022-12-18T04:07:48;-5.40;99.90
60309;DHT22;50313;52.894;6.492;2022-12-18T04:10:16;-5.50;99.90
60309;DHT22;50313;52.894;6.492;2022-12-18T04:12:42;-5.50;99.90
60309;DHT22;50313;52.894;6.492;2022-12-18T04:15:09;-5.50;99.90
60309;DHT22;50313;52.894;6.492;2022-12-18T04:17:35;-5.60;99.90
60309;DHT22;50313;52.894;6.492;2022-12-18T04:20:02;-5.60;99.90
60309;DHT22;50313;52.894;6.492;2022-12-18T04:22:28;-5.60;99.90
60309;DHT22;50313;52.894;6.492;2022-12-18T04:24:53;-5.60;99.90
60309;DHT22;50313;52.894;6.492;2022-12-18T04:27:19;-5.50;99.90
60309;DHT22;50313;52.894;6.492;2022-12-18T04:29:45;-5.50;99.90
60309;DHT22;50313;52.894;6.492;2022-12-18T04:32:11;-5.50;99.90
60309;DHT22;50313;52.894;6.492;2022-12-18T04:34:36;-5.50;99.90
60309;DHT22;50313;52.894;6.492;2022-12-18T04:37:02;-5.50;99.90
60309;DHT22;50313;52.894;6.492;2022-12-18T04:39:28;-5.50;99.90
60309;DHT22;50313;52.894;6.492;2022-12-18T04:41:53;-5.50;99.90
60309;DHT22;50313;52.894;6.492;2022-12-18T04:44:19;-5.50;99.90
60309;DHT22;50313;52.894;6.492;2022-12-18T04:46:45;-5.50;99.90
60309;DHT22;50313;52.894;6.492;2022-12-18T04:49:10;-5.50;99.90
60309;DHT22;50313;52.894;6.492;2022-12-18T04:51:36;-5.50;99.90
60309;DHT22;50313;52.894;6.492;2022-12-18T04:54:02;-5.50;99.90
60309;DHT22;50313;52.894;6.492;2022-12-18T04:56:29;-5.50;99.90
60309;DHT22;50313;52.894;6.492;2022-12-18T04:58:55;-5.50;99.90
60309;DHT22;50313;52.894;6.492;2022-12-18T05:01:21;-5.50;99.90
60309;DHT22;50313;52.894;6.492;2022-12-18T05:03:47;-5.60;99.90
60309;DHT22;50313;52.894;6.492;2022-12-18T05:06:12;-5.60;99.90
60309;DHT22;50313;52.894;6.492;2022-12-18T05:08:38;-5.70;99.90
60309;DHT22;50313;52.894;6.492;2022-12-18T05:11:06;-5.70;99.90
60309;DHT22;50313;52.894;6.492;2022-12-18T05:13:33;-5.70;99.90
60309;DHT22;50313;52.894;6.492;2022-12-18T05:15:59;-5.70;99.90
60309;DHT22;50313;52.894;6.492;2022-12-18T05:18:26;-5.70;99.90
60309;DHT22;50313;52.894;6.492;2022-12-18T05:20:52;-5.80;99.90
60309;DHT22;50313;52.894;6.492;2022-12-18T05:23:18;-5.80;99.90
60309;DHT22;50313;52.894;6.492;2022-12-18T05:26:02;-5.80;99.90
60309;DHT22;50313;52.894;6.492;2022-12-18T05:28:31;-5.80;99.90
60309;DHT22;50313;52.894;6.492;2022-12-18T05:30:58;-5.80;99.90
60309;DHT22;50313;52.894;6.492;2022-12-18T05:33:26;-5.80;99.90
60309;DHT22;50313;52.894;6.492;2022-12-18T05:35:58;-5.70;99.90
60309;DHT22;50313;52.894;6.492;2022-12-18T05:38:25;-5.80;99.90
60309;DHT22;50313;52.894;6.492;2022-12-18T05:40:52;-5.80;99.90
60309;DHT22;50313;52.894;6.492;2022-12-18T05:43:19;-5.80;99.90
60309;DHT22;50313;52.894;6.492;2022-12-18T05:45:47;-5.80;99.90
60309;DHT22;50313;52.894;6.492;2022-12-18T05:48:13;-5.80;99.90
60309;DHT22;50313;52.894;6.492;2022-12-18T05:50:40;-5.90;99.90
60309;DHT22;50313;52.894;6.492;2022-12-18T05:53:07;-5.90;99.90
60309;DHT22;50313;52.894;6.492;2022-12-18T05:55:37;-6.00;99.90
60309;DHT22;50313;52.894;6.492;2022-12-18T05:58:04;-6.00;99.90
60309;DHT22;50313;52.894;6.492;2022-12-18T06:00:32;-6.00;99.90
60309;DHT22;50313;52.894;6.492;2022-12-18T06:02:58;-6.00;99.90
60309;DHT22;50313;52.894;6.492;2022-12-18T06:05:24;-6.00;99.90
60309;DHT22;50313;52.894;6.492;2022-12-18T06:07:50;-6.10;99.90
60309;DHT22;50313;52.894;6.492;2022-12-18T06:10:16;-6.10;99.90
60309;DHT22;50313;52.894;6.492;2022-12-18T06:12:42;-6.10;99.90
60309;DHT22;50313;52.894;6.492;2022-12-18T06:15:08;-6.10;99.90
60309;DHT22;50313;52.894;6.492;2022-12-18T06:17:34;-6.10;99.90
60309;DHT22;50313;52.894;6.492;2022-12-18T06:20:00;-6.10;99.90
60309;DHT22;50313;52.894;6.492;2022-12-18T06:22:27;-6.20;99.90
60309;DHT22;50313;52.894;6.492;2022-12-18T06:24:52;-6.20;99.90
60309;DHT22;50313;52.894;6.492;2022-12-18T06:27:18;-6.20;99.90
60309;DHT22;50313;52.894;6.492;2022-12-18T06:29:44;-6.20;99.90
60309;DHT22;50313;52.894;6.492;2022-12-18T06:32:11;-6.10;99.90
60309;DHT22;50313;52.894;6.492;2022-12-18T06:34:40;-6.10;99.90
60309;DHT22;50313;52.894;6.492;2022-12-18T06:37:06;-6.20;99.90
60309;DHT22;50313;52.894;6.492;2022-12-18T06:39:31;-6.10;99.90
60309;DHT22;50313;52.894;6.492;2022-12-18T06:41:57;-6.10;99.90
60309;DHT22;50313;52.894;6.492;2022-12-18T06:44:23;-6.10;99.90
60309;DHT22;50313;52.894;6.492;2022-12-18T06:46:49;-6.10;99.90
60309;DHT22;50313;52.894;6.492;2022-12-18T06:49:14;-6.10;99.90
60309;DHT22;50313;52.894;6.492;2022-12-18T06:51:41;-6.10;99.90
60309;DHT22;50313;52.894;6.492;2022-12-18T06:54:08;-6.20;99.90
60309;DHT22;50313;52.894;6.492;2022-12-18T06:56:34;-6.20;99.90
60309;DHT22;50313;52.894;6.492;2022-12-18T06:59:00;-6.20;99.90
60309;DHT22;50313;52.894;6.492;2022-12-18T07:01:26;-6.30;99.90
60309;DHT22;50313;52.894;6.492;2022-12-18T07:03:53;-6.30;99.90
60309;DHT22;50313;52.894;6.492;2022-12-18T07:06:21;-6.30;99.90
60309;DHT22;50313;52.894;6.492;2022-12-18T07:08:55;-6.30;99.90
60309;DHT22;50313;52.894;6.492;2022-12-18T07:11:21;-6.30;99.90
60309;DHT22;50313;52.894;6.492;2022-12-18T07:13:47;-6.30;99.90
60309;DHT22;50313;52.894;6.492;2022-12-18T07:16:18;-6.30;99.90
60309;DHT22;50313;52.894;6.492;2022-12-18T07:18:44;-6.30;99.90
60309;DHT22;50313;52.894;6.492;2022-12-18T07:21:15;-6.30;99.90
60309;DHT22;50313;52.894;6.492;2022-12-18T07:23:41;-6.30;99.90
60309;DHT22;50313;52.894;6.492;2022-12-18T07:26:12;-6.30;99.90
60309;DHT22;50313;52.894;6.492;2022-12-18T07:28:39;-6.40;99.90
60309;DHT22;50313;52.894;6.492;2022-12-18T07:31:10;-6.40;99.90
60309;DHT22;50313;52.894;6.492;2022-12-18T07:33:36;-6.40;99.90
60309;DHT22;50313;52.894;6.492;2022-12-18T07:36:04;-6.40;99.90
60309;DHT22;50313;52.894;6.492;2022-12-18T07:38:30;-6.40;99.90
60309;DHT22;50313;52.894;6.492;2022-12-18T07:41:03;-6.40;99.90
60309;DHT22;50313;52.894;6.492;2022-12-18T07:43:29;-6.40;99.90
60309;DHT22;50313;52.894;6.492;2022-12-18T07:45:55;-6.40;99.90
60309;DHT22;50313;52.894;6.492;2022-12-18T07:48:21;-6.40;99.90
60309;DHT22;50313;52.894;6.492;2022-12-18T07:50:47;-6.40;99.90
60309;DHT22;50313;52.894;6.492;2022-12-18T07:53:13;-6.40;99.90
60309;DHT22;50313;52.894;6.492;2022-12-18T07:55:40;-6.40;99.90
60309;DHT22;50313;52.894;6.492;2022-12-18T07:58:06;-6.40;99.90
60309;DHT22;50313;52.894;6.492;2022-12-18T08:00:33;-6.40;99.90
60309;DHT22;50313;52.894;6.492;2022-12-18T08:02:58;-6.40;99.90
60309;DHT22;50313;52.894;6.492;2022-12-18T08:05:24;-6.30;99.90
60309;DHT22;50313;52.894;6.492;2022-12-18T08:07:50;-6.30;99.90
60309;DHT22;50313;52.894;6.492;2022-12-18T08:10:16;-6.30;99.90
60309;DHT22;50313;52.894;6.492;2022-12-18T08:12:42;-6.20;99.90
60309;DHT22;50313;52.894;6.492;2022-12-18T08:15:08;-6.20;99.90
60309;DHT22;50313;52.894;6.492;2022-12-18T08:17:34;-6.20;99.90
60309;DHT22;50313;52.894;6.492;2022-12-18T08:20:00;-6.10;99.90
60309;DHT22;50313;52.894;6.492;2022-12-18T08:22:26;-6.10;99.90
60309;DHT22;50313;52.894;6.492;2022-12-18T08:24:52;-6.00;99.90
60309;DHT22;50313;52.894;6.492;2022-12-18T08:27:17;-6.00;99.90
60309;DHT22;50313;52.894;6.492;2022-12-18T08:29:43;-5.90;99.90
60309;DHT22;50313;52.894;6.492;2022-12-18T08:32:09;-5.90;99.90
60309;DHT22;50313;52.894;6.492;2022-12-18T08:34:35;-5.90;99.90
60309;DHT22;50313;52.894;6.492;2022-12-18T08:37:01;-5.80;99.90
60309;DHT22;50313;52.894;6.492;2022-12-18T08:39:26;-5.80;99.90
60309;DHT22;50313;52.894;6.492;2022-12-18T08:41:52;-5.70;99.90
60309;DHT22;50313;52.894;6.492;2022-12-18T08:44:36;-5.70;99.90
60309;DHT22;50313;52.894;6.492;2022-12-18T08:47:06;-5.60;99.90
60309;DHT22;50313;52.894;6.492;2022-12-18T08:49:33;-5.60;99.90
60309;DHT22;50313;52.894;6.492;2022-12-18T08:51:59;-5.50;99.90
60309;DHT22;50313;52.894;6.492;2022-12-18T08:54:25;-5.50;99.90
60309;DHT22;50313;52.894;6.492;2022-12-18T08:56:51;-5.40;99.90
60309;DHT22;50313;52.894;6.492;2022-12-18T08:59:18;-5.30;99.90
60309;DHT22;50313;52.894;6.492;2022-12-18T09:01:43;-5.30;99.90
60309;DHT22;50313;52.894;6.492;2022-12-18T09:04:09;-5.30;99.90
60309;DHT22;50313;52.894;6.492;2022-12-18T09:06:35;-5.20;99.90
60309;DHT22;50313;52.894;6.492;2022-12-18T09:09:01;-5.10;99.90
60309;DHT22;50313;52.894;6.492;2022-12-18T09:11:28;-5.00;99.90
60309;DHT22;50313;52.894;6.492;2022-12-18T09:13:55;-4.90;99.90
60309;DHT22;50313;52.894;6.492;2022-12-18T09:16:22;-4.90;99.90
60309;DHT22;50313;52.894;6.492;2022-12-18T09:18:48;-4.80;99.90
60309;DHT22;50313;52.894;6.492;2022-12-18T09:21:17;-4.70;99.90
60309;DHT22;50313;52.894;6.492;2022-12-18T09:23:43;-4.70;99.90
60309;DHT22;50313;52.894;6.492;2022-12-18T09:26:09;-4.60;99.90
60309;DHT22;50313;52.894;6.492;2022-12-18T09:28:34;-4.50;99.90
60309;DHT22;50313;52.894;6.492;2022-12-18T09:31:07;-4.40;99.90
60309;DHT22;50313;52.894;6.492;2022-12-18T09:33:35;-4.40;99.90
60309;DHT22;50313;52.894;6.492;2022-12-18T09:36:05;-4.30;99.90
60309;DHT22;50313;52.894;6.492;2022-12-18T09:38:31;-4.20;99.90
60309;DHT22;50313;52.894;6.492;2022-12-18T09:41:03;-4.10;99.90
60309;DHT22;50313;52.894;6.492;2022-12-18T09:43:51;-4.00;99.90
60309;DHT22;50313;52.894;6.492;2022-12-18T09:46:28;-3.90;99.90
60309;DHT22;50313;52.894;6.492;2022-12-18T09:49:00;-3.80;99.90
60309;DHT22;50313;52.894;6.492;2022-12-18T09:51:29;-3.70;99.90
60309;DHT22;50313;52.894;6.492;2022-12-18T09:54:03;-3.60;99.90
60309;DHT22;50313;52.894;6.492;2022-12-18T09:56:38;-3.50;99.90
60309;DHT22;50313;52.894;6.492;2022-12-18T09:59:05;-3.40;99.90
60309;DHT22;50313;52.894;6.492;2022-12-18T10:01:32;-3.30;99.90
60309;DHT22;50313;52.894;6.492;2022-12-18T10:03:59;-3.30;99.90
60309;DHT22;50313;52.894;6.492;2022-12-18T10:06:39;-3.20;99.90
60309;DHT22;50313;52.894;6.492;2022-12-18T10:12:13;-3.20;99.90
60309;DHT22;50313;52.894;6.492;2022-12-18T10:14:51;-3.10;99.90
60309;DHT22;50313;52.894;6.492;2022-12-18T10:17:37;-3.10;99.90
60309;DHT22;50313;52.894;6.492;2022-12-18T10:20:17;-3.10;99.90
60309;DHT22;50313;52.894;6.492;2022-12-18T10:28:23;-3.00;99.90
60309;DHT22;50313;52.894;6.492;2022-12-18T10:30:49;-3.00;99.90
60309;DHT22;50313;52.894;6.492;2022-12-18T10:33:17;-3.00;99.90
60309;DHT22;50313;52.894;6.492;2022-12-18T10:35:44;-2.90;99.90
60309;DHT22;50313;52.894;6.492;2022-12-18T10:43:15;-2.80;99.90
60309;DHT22;50313;52.894;6.492;2022-12-18T10:51:06;-2.60;99.90
60309;DHT22;50313;52.894;6.492;2022-12-18T10:53:36;-2.50;99.90
60309;DHT22;50313;52.894;6.492;2022-12-18T10:56:04;-2.40;99.90
60309;DHT22;50313;52.894;6.492;2022-12-18T10:58:31;-2.30;99.90
60309;DHT22;50313;52.894;6.492;2022-12-18T11:01:17;-2.30;99.90
60309;DHT22;50313;52.894;6.492;2022-12-18T11:06:22;-2.10;99.90
60309;DHT22;50313;52.894;6.492;2022-12-18T11:09:04;-2.10;99.90
60309;DHT22;50313;52.894;6.492;2022-12-18T11:11:31;-2.00;99.90
60309;DHT22;50313;52.894;6.492;2022-12-18T11:14:05;-2.00;99.90
60309;DHT22;50313;52.894;6.492;2022-12-18T11:16:42;-2.00;99.90
60309;DHT22;50313;52.894;6.492;2022-12-18T11:19:33;-1.90;99.90
60309;DHT22;50313;52.894;6.492;2022-12-18T11:22:01;-1.90;99.90
60309;DHT22;50313;52.894;6.492;2022-12-18T11:24:36;-1.80;99.90
60309;DHT22;50313;52.894;6.492;2022-12-18T11:27:04;-1.80;99.90
60309;DHT22;50313;52.894;6.492;2022-12-18T11:32:28;-1.70;99.90
60309;DHT22;50313;52.894;6.492;2022-12-18T11:35:01;-1.70;99.90
60309;DHT22;50313;52.894;6.492;2022-12-18T11:37:28;-1.70;99.90
60309;DHT22;50313;52.894;6.492;2022-12-18T11:39:59;-1.70;99.90
60309;DHT22;50313;52.894;6.492;2022-12-18T11:45:23;-1.60;99.90
60309;DHT22;50313;52.894;6.492;2022-12-18T11:48:13;-1.60;99.90
60309;DHT22;50313;52.894;6.492;2022-12-18T11:50:56;-1.60;99.90
60309;DHT22;50313;52.894;6.492;2022-12-18T11:53:24;-1.50;99.90
60309;DHT22;50313;52.894;6.492;2022-12-18T12:07:03;-1.30;99.90
60309;DHT22;50313;52.894;6.492;2022-12-18T12:18:01;-1.20;99.90
60309;DHT22;50313;52.894;6.492;2022-12-18T12:20:58;-1.20;99.90
60309;DHT22;50313;52.894;6.492;2022-12-18T12:26:27;-1.10;99.90
60309;DHT22;50313;52.894;6.492;2022-12-18T12:34:35;-1.10;99.90
60309;DHT22;50313;52.894;6.492;2022-12-18T12:37:25;-1.10;99.90
60309;DHT22;50313;52.894;6.492;2022-12-18T12:39:56;-1.00;99.90
60309;DHT22;50313;52.894;6.492;2022-12-18T12:42:44;-1.00;99.90
60309;DHT22;50313;52.894;6.492;2022-12-18T12:45:49;-1.00;99.90
60309;DHT22;50313;52.894;6.492;2022-12-18T12:50:48;-0.90;99.90
60309;DHT22;50313;52.894;6.492;2022-12-18T12:53:23;-0.90;99.90
60309;DHT22;50313;52.894;6.492;2022-12-18T12:55:51;-0.90;99.90
60309;DHT22;50313;52.894;6.492;2022-12-18T13:01:01;-0.80;99.90
60309;DHT22;50313;52.894;6.492;2022-12-18T13:06:40;-0.80;99.90
60309;DHT22;50313;52.894;6.492;2022-12-18T13:09:07;-0.80;99.90
60309;DHT22;50313;52.894;6.492;2022-12-18T13:11:45;-0.70;99.90
60309;DHT22;50313;52.894;6.492;2022-12-18T13:14:38;-0.80;99.90
60309;DHT22;50313;52.894;6.492;2022-12-18T13:20:02;-0.70;99.90
60309;DHT22;50313;52.894;6.492;2022-12-18T13:22:34;-0.70;99.90
60309;DHT22;50313;52.894;6.492;2022-12-18T13:25:00;-0.70;99.90
60309;DHT22;50313;52.894;6.492;2022-12-18T13:41:02;-0.70;99.90
60309;DHT22;50313;52.894;6.492;2022-12-18T13:43:43;-0.70;99.90
60309;DHT22;50313;52.894;6.492;2022-12-18T13:51:23;-0.60;99.90
60309;DHT22;50313;52.894;6.492;2022-12-18T13:53:50;-0.70;99.90
60309;DHT22;50313;52.894;6.492;2022-12-18T13:56:25;-0.70;99.90
60309;DHT22;50313;52.894;6.492;2022-12-18T14:02:00;-0.70;99.90
60309;DHT22;50313;52.894;6.492;2022-12-18T14:04:34;-0.70;99.90
60309;DHT22;50313;52.894;6.492;2022-12-18T14:07:10;-0.80;99.90
60309;DHT22;50313;52.894;6.492;2022-12-18T14:09:40;-0.80;99.90
60309;DHT22;50313;52.894;6.492;2022-12-18T14:15:03;-0.70;99.90
60309;DHT22;50313;52.894;6.492;2022-12-18T14:17:31;-0.80;99.90
60309;DHT22;50313;52.894;6.492;2022-12-18T14:19:57;-0.70;99.90
60309;DHT22;50313;52.894;6.492;2022-12-18T14:22:25;-0.80;99.90
60309;DHT22;50313;52.894;6.492;2022-12-18T14:27:43;-0.80;99.90
60309;DHT22;50313;52.894;6.492;2022-12-18T14:30:31;-0.80;99.90
60309;DHT22;50313;52.894;6.492;2022-12-18T14:33:19;-0.90;99.90
60309;DHT22;50313;52.894;6.492;2022-12-18T14:38:41;-0.90;99.90
60309;DHT22;50313;52.894;6.492;2022-12-18T14:41:13;-0.90;99.90
60309;DHT22;50313;52.894;6.492;2022-12-18T14:43:41;-0.90;99.90
60309;DHT22;50313;52.894;6.492;2022-12-18T14:46:36;-1.00;99.90
60309;DHT22;50313;52.894;6.492;2022-12-18T14:49:14;-1.00;99.90
60309;DHT22;50313;52.894;6.492;2022-12-18T14:51:54;-1.00;99.90
60309;DHT22;50313;52.894;6.492;2022-12-18T14:54:21;-1.10;99.90
60309;DHT22;50313;52.894;6.492;2022-12-18T14:56:49;-1.10;99.90
60309;DHT22;50313;52.894;6.492;2022-12-18T14:59:22;-1.10;99.90
60309;DHT22;50313;52.894;6.492;2022-12-18T15:04:37;-1.20;99.90
60309;DHT22;50313;52.894;6.492;2022-12-18T15:09:37;-1.20;99.90
60309;DHT22;50313;52.894;6.492;2022-12-18T15:12:03;-1.20;99.90
60309;DHT22;50313;52.894;6.492;2022-12-18T15:14:34;-1.20;99.90
60309;DHT22;50313;52.894;6.492;2022-12-18T15:17:03;-1.20;99.90
60309;DHT22;50313;52.894;6.492;2022-12-18T15:19:43;-1.20;99.90
60309;DHT22;50313;52.894;6.492;2022-12-18T15:22:19;-1.20;99.90
60309;DHT22;50313;52.894;6.492;2022-12-18T15:24:46;-1.20;99.90
60309;DHT22;50313;52.894;6.492;2022-12-18T15:27:22;-1.20;99.90
60309;DHT22;50313;52.894;6.492;2022-12-18T15:32:39;-1.20;99.90
60309;DHT22;50313;52.894;6.492;2022-12-18T15:35:21;-1.20;99.90
60309;DHT22;50313;52.894;6.492;2022-12-18T15:37:48;-1.20;99.90
60309;DHT22;50313;52.894;6.492;2022-12-18T15:40:16;-1.30;99.90
60309;DHT22;50313;52.894;6.492;2022-12-18T15:42:42;-1.30;99.90
60309;DHT22;50313;52.894;6.492;2022-12-18T15:45:27;-1.30;99.90
60309;DHT22;50313;52.894;6.492;2022-12-18T15:47:53;-1.20;99.90
60309;DHT22;50313;52.894;6.492;2022-12-18T15:50:19;-1.20;99.90
60309;DHT22;50313;52.894;6.492;2022-12-18T15:52:46;-1.30;99.90
60309;DHT22;50313;52.894;6.492;2022-12-18T15:55:23;-1.20;99.90
60309;DHT22;50313;52.894;6.492;2022-12-18T15:58:08;-1.20;99.90
60309;DHT22;50313;52.894;6.492;2022-12-18T16:00:37;-1.20;99.90
60309;DHT22;50313;52.894;6.492;2022-12-18T16:03:04;-1.30;99.90
60309;DHT22;50313;52.894;6.492;2022-12-18T16:05:30;-1.20;99.90
60309;DHT22;50313;52.894;6.492;2022-12-18T16:07:56;-1.30;99.90
60309;DHT22;50313;52.894;6.492;2022-12-18T16:10:22;-1.30;99.90
60309;DHT22;50313;52.894;6.492;2022-12-18T16:12:48;-1.30;99.90
60309;DHT22;50313;52.894;6.492;2022-12-18T16:15:14;-1.30;99.90
60309;DHT22;50313;52.894;6.492;2022-12-18T16:17:42;-1.30;99.90
60309;DHT22;50313;52.894;6.492;2022-12-18T16:20:20;-1.30;99.90
60309;DHT22;50313;52.894;6.492;2022-12-18T16:22:47;-1.30;99.90
60309;DHT22;50313;52.894;6.492;2022-12-18T16:27:43;-1.30;99.90
60309;DHT22;50313;52.894;6.492;2022-12-18T16:30:14;-1.30;99.90
60309;DHT22;50313;52.894;6.492;2022-12-18T16:32:39;-1.30;99.90
60309;DHT22;50313;52.894;6.492;2022-12-18T16:35:05;-1.20;99.90
60309;DHT22;50313;52.894;6.492;2022-12-18T16:37:31;-1.20;99.90
60309;DHT22;50313;52.894;6.492;2022-12-18T16:39:57;-1.20;99.90
60309;DHT22;50313;52.894;6.492;2022-12-18T16:42:23;-1.20;99.90
60309;DHT22;50313;52.894;6.492;2022-12-18T16:44:49;-1.20;99.90
60309;DHT22;50313;52.894;6.492;2022-12-18T16:47:16;-1.20;99.90
60309;DHT22;50313;52.894;6.492;2022-12-18T16:49:42;-1.20;99.90
60309;DHT22;50313;52.894;6.492;2022-12-18T16:52:10;-1.20;99.90
60309;DHT22;50313;52.894;6.492;2022-12-18T16:54:36;-1.20;99.90
60309;DHT22;50313;52.894;6.492;2022-12-18T16:57:02;-1.20;99.90
60309;DHT22;50313;52.894;6.492;2022-12-18T16:59:29;-1.10;99.90
60309;DHT22;50313;52.894;6.492;2022-12-18T17:01:55;-1.20;99.90
60309;DHT22;50313;52.894;6.492;2022-12-18T17:04:21;-1.10;99.90
60309;DHT22;50313;52.894;6.492;2022-12-18T17:06:47;-1.10;99.90
60309;DHT22;50313;52.894;6.492;2022-12-18T17:09:17;-1.10;99.90
60309;DHT22;50313;52.894;6.492;2022-12-18T17:11:48;-1.10;99.90
60309;DHT22;50313;52.894;6.492;2022-12-18T17:14:17;-1.10;99.90
60309;DHT22;50313;52.894;6.492;2022-12-18T17:16:43;-1.00;99.90
60309;DHT22;50313;52.894;6.492;2022-12-18T17:19:10;-1.00;99.90
60309;DHT22;50313;52.894;6.492;2022-12-18T17:21:35;-1.10;99.90
60309;DHT22;50313;52.894;6.492;2022-12-18T17:24:02;-1.10;99.90
60309;DHT22;50313;52.894;6.492;2022-12-18T17:26:28;-1.10;99.90
60309;DHT22;50313;52.894;6.492;2022-12-18T17:28:57;-1.00;99.90
60309;DHT22;50313;52.894;6.492;2022-12-18T17:31:25;-1.00;99.90
60309;DHT22;50313;52.894;6.492;2022-12-18T17:33:51;-1.00;99.90
60309;DHT22;50313;52.894;6.492;2022-12-18T17:36:18;-1.00;99.90
60309;DHT22;50313;52.894;6.492;2022-12-18T17:38:53;-1.00;99.90
60309;DHT22;50313;52.894;6.492;2022-12-18T17:41:20;-1.00;99.90
60309;DHT22;50313;52.894;6.492;2022-12-18T17:43:53;-1.00;99.90
60309;DHT22;50313;52.894;6.492;2022-12-18T17:46:20;-1.00;99.90
60309;DHT22;50313;52.894;6.492;2022-12-18T17:48:46;-1.00;99.90
60309;DHT22;50313;52.894;6.492;2022-12-18T17:51:13;-1.00;99.90
60309;DHT22;50313;52.894;6.492;2022-12-18T17:53:39;-1.00;99.90
60309;DHT22;50313;52.894;6.492;2022-12-18T17:56:06;-1.00;99.90
60309;DHT22;50313;52.894;6.492;2022-12-18T17:58:33;-1.00;99.90
60309;DHT22;50313;52.894;6.492;2022-12-18T18:01:01;-0.90;99.90
60309;DHT22;50313;52.894;6.492;2022-12-18T18:03:27;-1.00;99.90